Main page
METAR-TAF:

METAR-TAF

Airports :

Aurel Vlaicu International Airport

Bucharest Băneasa, Romania

latitude: 44-30N, longitude: 026-08E, elevation: 90 m

Current weather observation

The report was made 26 minutes ago, at 20:00 UTC
Calm wind
Temperature 7°C
Humidity 81%
Pressure 1027 hPa
Visibility: 7000 m

METAR: LRBS 282000Z 00000KT 7000 NSC 07/04 Q1027 NOSIG

Time: 23:26 (20:26 UTC)

Forecast

The report was made 3 hours and 26 minutes ago, at 17:00 UTC
Forecast valid from 28 at 18 UTC to 29 at 18 UTC
Wind 4 kt from variable directions
Visibility 10 km or more
no clouds below 1500 m and no cumulonimbus
Probability 30% :
Temporary
from 29 at 01 UTC to 29 at 05 UTC
Visibility: 5000 m
mist

TAF: LRBS 281700Z 2818/2918 VRB04KT CAVOK PROB30 TEMPO 2901/2905 5000 BR

Weather observations and forecasts of more than 4000 airports (METAR and TAF reports).

The available stations are represented by yellow and red dots on the map.

Hover mouse over dot to see the name of the station.

Then click to see weather observations and forecasts.

To change the map : click on the green buttons with a black cross to zoom in, on the green button with a dash to zoom out, or on the green arrows for adjacent maps.


METAR-TAF: